This is the latest recevied weather packets stored in our database for station/object OK3FM-14. If no packets are shown the sender has not sent any weather packets the latest 10 day(s).
| Time | Temp. | Humidity | Pressure | Rain* | Wind** | Luminosity | Snow |
|---|---|---|---|---|---|---|---|
| 1787639232 | 16.67° C | 56% | 1016.7 hPa | - | - | - | - |
| 1787638633 | 15.56° C | 60% | 1016.6 hPa | - | - | - | - |
| 1787638032 | 14.44° C | 65% | 1016.7 hPa | - | - | - | - |
| 1787637432 | 14.44° C | 64% | 1016.7 hPa | - | - | - | - |
| 1787636832 | 14.44° C | 64% | 1016.4 hPa | - | - | - | - |
| 1787636232 | 15° C | 63% | 1016.4 hPa | - | - | - | - |
| 1787635632 | 13.89° C | 67% | 1016.3 hPa | - | - | - | - |
| 1787635032 | 12.78° C | 70% | 1016.3 hPa | - | - | - | - |
| 1787634432 | 12.78° C | 72% | 1016.4 hPa | - | - | - | - |
| 1787633832 | 12.22° C | 73% | 1016.5 hPa | - | - | - | - |
| 1787633232 | 11.67° C | 76% | 1016.6 hPa | - | - | - | - |
| 1787632632 | 11.11° C | 80% | 1016.9 hPa | - | - | - | - |
| 1787632032 | 11.11° C | 80% | 1016.9 hPa | - | - | - | - |
| 1787631432 | 11.11° C | 80% | 1016.9 hPa | - | - | - | - |
| 1787630832 | 11.11° C | 79% | 1016.9 hPa | - | - | - | - |
| 1787630232 | 11.11° C | 78% | 1017 hPa | - | - | - | - |
| 1787629632 | 11.67° C | 78% | 1017 hPa | - | - | - | - |
| 1787629032 | 11.67° C | 78% | 1017 hPa | - | - | - | - |
| 1787628432 | 11.67° C | 77% | 1017 hPa | - | - | - | - |
| 1787627832 | 11.67° C | 76% | 1017.1 hPa | - | - | - | - |
| 1787627232 | 11.67° C | 75% | 1016.9 hPa | - | - | - | - |
| 1787626632 | 12.22° C | 74% | 1017 hPa | - | - | - | - |
| 1787626032 | 12.22° C | 75% | 1017.3 hPa | - | - | - | - |
| 1787625432 | 12.22° C | 74% | 1017.5 hPa | - | - | - | - |
| 1787624832 | 12.22° C | 74% | 1017.4 hPa | - | - | - | - |
* Rain since midnight (hover to see other rain measurements)
** Current wind speed in m/s (hover to see current wind gust speed)